Time;durP1;ratioP1;P1;durP2;ratioP2;P2;SDS_P1;SDS_P2;PMS_P1;PMS_P2;Temp;Humidity;BMP_temperature;BMP_pressure;BME280_temperature;BME280_humidity;BME280_pressure;Samples;Min_cycle;Max_cycle;Signal;HPM_P1;HPM_P2
2023/10/27 00:01:31;;;;;;;49.13;21.88;;;10.00;99.90;;;;;;5051542;28;20032;-52
2023/10/27 00:03:57;;;;;;;44.58;21.35;;;10.00;99.90;;;;;;5050886;28;20045;-53
2023/10/27 00:06:22;;;;;;;55.42;37.33;;;10.00;99.90;;;;;;5033663;28;20049;-54
2023/10/27 00:08:48;;;;;;;44.63;20.45;;;9.70;99.90;;;;;;5050648;28;20033;-54
2023/10/27 00:11:14;;;;;;;45.10;20.55;;;10.00;99.90;;;;;;5049190;28;20041;-53
2023/10/27 00:13:39;;;;;;;45.05;21.10;;;10.10;99.90;;;;;;5050372;28;20028;-55
2023/10/27 00:16:09;;;;;;;49.53;35.15;;;9.70;99.90;;;;;;5050948;28;20464;-57
2023/10/27 00:18:35;;;;;;;48.45;21.02;;;9.70;99.90;;;;;;5051603;28;20403;-56
2023/10/27 00:21:01;;;;;;;46.00;21.05;;;10.00;99.90;;;;;;5033587;28;20037;-55
2023/10/27 00:23:27;;;;;;;46.70;21.20;;;9.80;99.90;;;;;;5033219;28;20044;-53
2023/10/27 00:25:52;;;;;;;52.28;36.17;;;10.00;99.90;;;;;;5050794;28;20484;-55
2023/10/27 00:28:18;;;;;;;43.03;19.38;;;10.00;99.90;;;;;;5049915;28;20059;-55
2023/10/27 00:30:44;;;;;;;49.88;20.88;;;10.10;99.90;;;;;;5051014;28;20465;-58
2023/10/27 00:33:10;;;;;;;52.50;35.28;;;10.00;99.90;;;;;;5051598;28;20112;-54
2023/10/27 00:35:35;;;;;;;46.95;20.48;;;9.80;99.90;;;;;;5049878;28;20083;-50
2023/10/27 00:38:01;;;;;;;46.65;20.20;;;9.80;99.90;;;;;;5050946;28;20124;-53
2023/10/27 00:40:27;;;;;;;43.58;19.10;;;10.00;99.90;;;;;;5051368;28;20035;-54
2023/10/27 00:42:56;;;;;;;52.72;34.28;;;10.00;99.90;;;;;;5050706;28;20029;-58
2023/10/27 00:45:22;;;;;;;41.47;18.75;;;9.70;99.90;;;;;;5050892;28;20036;-57
2023/10/27 00:47:48;;;;;;;47.45;20.33;;;9.70;99.90;;;;;;5049894;28;20044;-52
2023/10/27 00:50:14;;;;;;;46.08;20.88;;;9.70;99.90;;;;;;5047457;28;20094;-55
2023/10/27 00:52:40;;;;;;;47.10;20.15;;;9.70;99.90;;;;;;5050662;28;20047;-56
2023/10/27 00:55:06;;;;;;;46.03;20.67;;;10.00;99.90;;;;;;5050744;28;20041;-53
2023/10/27 00:57:33;;;;;;;43.17;20.27;;;10.00;99.90;;;;;;5049320;28;20555;-55
2023/10/27 00:59:59;;;;;;;45.85;19.88;;;9.60;99.90;;;;;;5050863;28;20060;-59
2023/10/27 01:02:26;;;;;;;47.63;21.85;;;9.90;99.90;;;;;;5050537;28;20044;-55
2023/10/27 01:04:52;;;;;;;47.03;21.15;;;9.90;99.90;;;;;;5032752;28;20045;-53
2023/10/27 01:07:18;;;;;;;56.22;37.63;;;10.00;99.90;;;;;;5032324;28;20415;-53
2023/10/27 01:09:45;;;;;;;44.88;19.90;;;9.70;99.90;;;;;;5032913;28;20036;-54
2023/10/27 01:12:10;;;;;;;53.03;35.22;;;9.80;99.90;;;;;;5050752;28;20033;-54
2023/10/27 01:14:37;;;;;;;52.13;21.33;;;10.00;99.90;;;;;;5050298;28;20101;-55
2023/10/27 01:17:03;;;;;;;53.95;20.45;;;9.70;99.90;;;;;;5050514;28;20033;-55
2023/10/27 01:19:29;;;;;;;58.53;21.83;;;9.60;99.90;;;;;;5032123;28;20052;-53
2023/10/27 01:21:54;;;;;;;51.35;21.85;;;9.90;99.90;;;;;;5050601;28;20033;-54
2023/10/27 01:24:22;;;;;;;52.88;22.23;;;9.60;99.90;;;;;;5050708;28;20045;-53
2023/10/27 01:26:49;;;;;;;62.35;23.75;;;9.90;99.90;;;;;;5032348;28;20099;-54
2023/10/27 01:29:15;;;;;;;65.22;38.58;;;9.50;99.90;;;;;;5054052;28;20381;-53
2023/10/27 01:31:41;;;;;;;62.05;23.05;;;9.90;99.90;;;;;;5054771;28;20033;-55
2023/10/27 01:34:06;;;;;;;55.88;22.75;;;9.90;99.90;;;;;;5054085;28;20073;-57
2023/10/27 01:36:32;;;;;;;67.95;24.70;;;9.80;99.90;;;;;;5036639;28;20037;-54
2023/10/27 01:38:57;;;;;;;62.85;22.95;;;9.60;99.90;;;;;;5036692;28;20045;-56
2023/10/27 01:41:23;;;;;;;60.38;23.30;;;9.80;99.90;;;;;;5052853;28;20040;-55
2023/10/27 01:43:49;;;;;;;69.03;24.85;;;9.50;99.90;;;;;;5054274;28;20049;-54
2023/10/27 01:46:15;;;;;;;67.40;25.00;;;9.80;99.90;;;;;;5053770;28;20131;-58
2023/10/27 01:48:40;;;;;;;73.53;40.75;;;9.50;99.90;;;;;;5036519;28;20032;-56
2023/10/27 01:51:06;;;;;;;67.78;24.73;;;9.60;99.90;;;;;;5053483;28;20056;-55
2023/10/27 01:53:33;;;;;;;63.40;23.58;;;9.80;99.90;;;;;;5053613;28;20476;-54
2023/10/27 01:55:59;;;;;;;68.75;22.98;;;9.70;99.90;;;;;;5053916;28;20052;-55
2023/10/27 01:58:27;;;;;;;64.40;23.85;;;9.80;99.90;;;;;;5053484;28;20057;-56
2023/10/27 02:00:53;;;;;;;68.05;23.08;;;9.60;99.90;;;;;;5053539;28;20072;-52
2023/10/27 02:03:19;;;;;;;76.50;24.42;;;9.60;99.90;;;;;;5054083;28;20488;-57
2023/10/27 02:05:46;;;;;;;75.15;24.77;;;9.70;99.90;;;;;;5053550;28;20094;-53
2023/10/27 02:08:12;;;;;;;70.40;24.40;;;9.70;99.90;;;;;;5053197;28;20071;-51
2023/10/27 02:10:38;;;;;;;66.28;22.65;;;9.40;99.90;;;;;;5052224;28;20052;-55
2023/10/27 02:13:03;;;;;;;71.75;24.55;;;9.80;99.90;;;;;;5036226;28;20033;-54
2023/10/27 02:15:29;;;;;;;70.70;24.60;;;9.80;99.90;;;;;;5052362;28;20917;-55
2023/10/27 02:17:55;;;;;;;72.90;24.88;;;9.50;99.90;;;;;;5035514;28;20043;-57
2023/10/27 02:20:20;;;;;;;69.93;23.98;;;9.70;99.90;;;;;;5052519;28;20040;-58
2023/10/27 02:22:46;;;;;;;73.13;24.90;;;9.80;99.90;;;;;;5053674;28;20044;-55
2023/10/27 02:25:12;;;;;;;68.03;23.17;;;9.80;99.90;;;;;;5053604;28;20127;-56
2023/10/27 02:27:41;;;;;;;65.10;24.08;;;9.60;99.90;;;;;;5050132;28;20507;-53
2023/10/27 02:30:08;;;;;;;70.40;24.35;;;9.60;99.90;;;;;;5052983;28;20037;-55
2023/10/27 02:32:34;;;;;;;64.65;24.25;;;9.40;99.90;;;;;;5052762;28;20518;-56
2023/10/27 02:35:00;;;;;;;61.97;23.45;;;9.80;99.90;;;;;;5052269;28;20142;-56
2023/10/27 02:37:25;;;;;;;60.83;24.05;;;9.50;99.90;;;;;;5053261;28;20124;-54
2023/10/27 02:39:51;;;;;;;66.25;24.55;;;9.50;99.90;;;;;;5034741;28;20045;-56
2023/10/27 02:42:17;;;;;;;59.58;23.38;;;9.50;99.90;;;;;;5053355;28;20472;-54
2023/10/27 02:44:42;;;;;;;60.45;23.48;;;9.50;99.90;;;;;;5035055;28;20495;-55
2023/10/27 02:47:08;;;;;;;62.10;23.70;;;9.70;99.90;;;;;;5035342;28;20045;-56
2023/10/27 02:49:34;;;;;;;63.22;24.08;;;9.60;99.90;;;;;;5053061;28;20500;-55
2023/10/27 02:52:00;;;;;;;65.47;23.08;;;9.70;99.90;;;;;;5053578;28;20040;-53
2023/10/27 02:54:25;;;;;;;65.18;23.65;;;9.90;99.90;;;;;;5035226;28;20037;-54
2023/10/27 02:56:51;;;;;;;65.30;24.85;;;9.60;99.90;;;;;;5053151;28;20033;-57
2023/10/27 02:59:17;;;;;;;66.55;24.58;;;9.90;99.90;;;;;;5053325;28;20048;-56
2023/10/27 03:01:45;;;;;;;68.95;24.15;;;9.60;99.90;;;;;;5052282;28;20036;-51
2023/10/27 03:04:12;;;;;;;64.13;24.40;;;9.70;99.90;;;;;;5051976;28;20436;-56
2023/10/27 03:06:38;;;;;;;73.18;25.20;;;9.80;99.90;;;;;;5034699;28;20500;-53
2023/10/27 03:09:04;;;;;;;67.03;23.38;;;9.50;99.90;;;;;;5035518;28;20037;-57
2023/10/27 03:11:30;;;;;;;71.50;24.73;;;9.70;99.90;;;;;;5049939;28;20029;-56
2023/10/27 03:13:55;;;;;;;62.60;24.17;;;9.90;99.90;;;;;;5034059;28;20450;-57
2023/10/27 03:16:22;;;;;;;78.82;41.40;;;9.50;99.90;;;;;;5052163;28;20067;-54
2023/10/27 03:18:48;;;;;;;82.43;42.15;;;9.60;99.90;;;;;;5051704;28;20044;-53
2023/10/27 03:21:14;;;;;;;65.03;22.45;;;9.90;99.90;;;;;;5051850;28;20077;-52
2023/10/27 03:23:40;;;;;;;66.55;24.27;;;9.60;99.90;;;;;;5034581;28;20405;-56
2023/10/27 03:26:06;;;;;;;65.15;22.60;;;9.70;99.90;;;;;;5051053;28;20045;-55
2023/10/27 03:28:32;;;;;;;68.32;23.52;;;9.90;99.90;;;;;;5052254;28;20032;-51
2023/10/27 03:30:58;;;;;;;71.93;24.50;;;9.50;99.90;;;;;;5052437;28;20051;-56
2023/10/27 03:33:24;;;;;;;92.88;45.30;;;9.80;99.90;;;;;;5052437;28;20040;-55
2023/10/27 03:35:50;;;;;;;82.72;25.13;;;9.90;99.90;;;;;;5051430;28;20033;-53
2023/10/27 03:38:17;;;;;;;86.53;42.95;;;9.80;99.90;;;;;;5052591;28;20048;-56
2023/10/27 03:40:44;;;;;;;69.78;24.42;;;9.50;99.90;;;;;;5034315;28;20208;-54
2023/10/27 03:43:10;;;;;;;84.00;24.88;;;9.60;99.90;;;;;;5052052;28;20041;-52
2023/10/27 03:45:36;;;;;;;74.03;25.17;;;10.00;99.90;;;;;;5051538;28;20064;-55
2023/10/27 03:48:03;;;;;;;83.63;24.73;;;9.60;99.90;;;;;;5050870;28;20535;-55
2023/10/27 03:50:29;;;;;;;75.43;24.02;;;9.50;99.90;;;;;;5051060;28;20124;-56
2023/10/27 03:52:54;;;;;;;77.68;24.63;;;9.60;99.90;;;;;;5051617;28;20167;-54
2023/10/27 03:55:20;;;;;;;74.47;23.55;;;9.60;99.90;;;;;;5051455;28;20465;-54
2023/10/27 03:57:46;;;;;;;83.13;25.40;;;9.60;99.90;;;;;;5031938;28;20053;-55
2023/10/27 04:00:13;;;;;;;70.72;23.98;;;9.70;99.90;;;;;;5033898;28;20111;-54
2023/10/27 04:02:39;;;;;;;75.40;24.33;;;9.70;99.90;;;;;;5051519;28;20067;-54
2023/10/27 04:05:05;;;;;;;78.85;25.02;;;10.00;99.90;;;;;;5034298;28;20056;-56
2023/10/27 04:07:31;;;;;;;67.57;23.88;;;9.70;99.90;;;;;;5050387;28;20143;-54
2023/10/27 04:09:57;;;;;;;73.95;24.10;;;10.00;99.90;;;;;;5051242;28;20064;-56
2023/10/27 04:12:23;;;;;;;68.95;23.65;;;9.80;99.90;;;;;;5051891;28;20487;-55
2023/10/27 04:14:48;;;;;;;78.43;23.52;;;9.80;99.90;;;;;;5049151;28;20119;-55
2023/10/27 04:17:14;;;;;;;69.18;23.30;;;9.60;99.90;;;;;;5051267;28;20091;-58
2023/10/27 04:19:43;;;;;;;70.30;23.98;;;10.60;99.90;;;;;;5051250;28;20037;-54
2023/10/27 04:22:09;;;;;;;72.30;24.02;;;9.90;99.90;;;;;;5051902;28;20433;-57
2023/10/27 04:24:34;;;;;;;76.78;24.60;;;9.90;99.90;;;;;;5051402;28;20069;-54
2023/10/27 04:27:00;;;;;;;79.57;40.95;;;9.70;99.90;;;;;;5050939;28;20072;-52
2023/10/27 04:29:26;;;;;;;85.82;42.65;;;9.80;99.90;;;;;;5048235;28;20040;-51
2023/10/27 04:31:51;;;;;;;70.35;23.17;;;9.60;99.90;;;;;;5016413;28;20102;-55
2023/10/27 04:34:18;;;;;;;68.60;22.77;;;9.80;99.90;;;;;;5051492;28;20124;-54
2023/10/27 04:36:44;;;;;;;66.22;23.00;;;9.70;99.90;;;;;;5051120;28;20123;-54
2023/10/27 04:39:10;;;;;;;71.82;23.73;;;10.00;99.90;;;;;;5051203;28;20041;-56
2023/10/27 04:41:36;;;;;;;70.25;23.67;;;10.00;99.90;;;;;;5048208;28;20029;-58
2023/10/27 04:44:01;;;;;;;74.20;23.80;;;10.00;99.90;;;;;;5051267;28;20037;-53
2023/10/27 04:46:27;;;;;;;76.70;23.88;;;9.90;99.90;;;;;;5050920;28;20488;-58
2023/10/27 04:48:53;;;;;;;75.03;25.70;;;10.00;99.90;;;;;;5051141;28;20037;-51
2023/10/27 04:51:20;;;;;;;73.30;25.50;;;9.60;99.90;;;;;;5050213;28;20114;-58
2023/10/27 04:53:46;;;;;;;80.10;43.10;;;9.60;99.90;;;;;;5050865;28;20515;-56
2023/10/27 04:56:12;;;;;;;70.35;24.25;;;9.60;99.90;;;;;;5050692;28;20040;-55
2023/10/27 04:58:39;;;;;;;75.53;24.00;;;9.60;99.90;;;;;;5051007;28;20102;-53
2023/10/27 05:01:05;;;;;;;74.75;25.38;;;9.60;99.90;;;;;;5050230;28;20437;-57
2023/10/27 05:03:31;;;;;;;79.50;25.60;;;10.00;99.90;;;;;;5049877;28;20071;-57
2023/10/27 05:06:06;;;;;;;76.15;25.25;;;9.80;99.90;;;;;;5032294;28;20354;-56
2023/10/27 05:08:32;;;;;;;70.07;23.52;;;10.00;99.90;;;;;;5050627;28;20094;-55
2023/10/27 05:10:58;;;;;;;77.97;25.00;;;9.60;99.90;;;;;;5050638;28;20544;-57
2023/10/27 05:13:23;;;;;;;84.15;24.40;;;9.80;99.90;;;;;;5050524;28;20393;-57
2023/10/27 05:15:54;;;;;;;81.53;24.55;;;9.80;99.90;;;;;;5050553;28;20052;-54
2023/10/27 05:18:20;;;;;;;82.50;26.60;;;9.70;99.90;;;;;;5050919;28;20404;-58
2023/10/27 05:20:45;;;;;;;81.88;25.00;;;9.80;99.90;;;;;;5050760;28;20090;-58
2023/10/27 05:23:11;;;;;;;86.78;24.33;;;9.70;99.90;;;;;;5033090;28;20041;-57
2023/10/27 05:25:37;;;;;;;73.50;22.58;;;9.50;99.90;;;;;;5049842;28;20069;-56
2023/10/27 05:28:02;;;;;;;89.28;42.63;;;9.50;99.90;;;;;;5049744;28;20094;-53
2023/10/27 05:30:28;;;;;;;73.82;22.90;;;9.90;99.90;;;;;;5032586;28;20037;-55
2023/10/27 05:32:54;;;;;;;91.03;41.75;;;9.50;99.90;;;;;;5050593;28;20041;-53
2023/10/27 05:35:19;;;;;;;72.93;22.95;;;9.90;99.90;;;;;;5050109;28;20083;-55
2023/10/27 05:37:45;;;;;;;76.40;21.10;;;9.70;99.90;;;;;;5032563;28;20284;-51
2023/10/27 05:40:11;;;;;;;68.70;22.40;;;9.90;99.90;;;;;;5050818;28;20116;-56
2023/10/27 05:42:37;;;;;;;84.13;39.40;;;9.50;99.90;;;;;;5050187;28;20396;-53
2023/10/27 05:45:03;;;;;;;75.45;22.90;;;9.40;99.90;;;;;;5050074;28;20033;-54
2023/10/27 05:47:28;;;;;;;72.57;21.98;;;9.90;99.90;;;;;;5032621;28;20568;-56
2023/10/27 05:49:55;;;;;;;71.90;23.35;;;9.60;99.90;;;;;;5050009;28;20052;-55
2023/10/27 05:52:21;;;;;;;80.15;24.13;;;9.50;99.90;;;;;;5050615;28;20041;-52
2023/10/27 05:54:46;;;;;;;73.78;21.90;;;9.80;99.90;;;;;;5049918;28;20090;-53
2023/10/27 05:57:12;;;;;;;81.80;24.15;;;9.50;99.90;;;;;;5049626;28;20104;-50
2023/10/27 05:59:38;;;;;;;72.80;23.25;;;9.40;99.90;;;;;;5050492;28;20037;-53
2023/10/27 06:02:03;;;;;;;77.30;23.77;;;9.80;99.90;;;;;;5049805;28;20059;-50
2023/10/27 06:04:29;;;;;;;89.43;41.75;;;9.50;99.90;;;;;;5050025;28;20392;-53
2023/10/27 06:06:55;;;;;;;75.03;22.45;;;9.60;99.90;;;;;;5031274;28;20041;-56
2023/10/27 06:09:20;;;;;;;85.47;23.92;;;9.80;99.90;;;;;;5049724;28;20047;-50
2023/10/27 06:11:46;;;;;;;80.72;23.15;;;9.50;99.90;;;;;;5048063;28;20120;-52
2023/10/27 06:14:12;;;;;;;90.05;40.72;;;9.50;99.90;;;;;;5052157;28;20037;-55
2023/10/27 06:16:37;;;;;;;90.72;42.58;;;9.80;99.90;;;;;;5034976;28;20051;-55
2023/10/27 06:19:03;;;;;;;68.35;20.90;;;9.50;99.90;;;;;;5051071;28;20036;-56
2023/10/27 06:21:30;;;;;;;76.88;21.77;;;9.50;99.90;;;;;;5053187;28;20094;-53
2023/10/27 06:23:55;;;;;;;77.40;22.92;;;9.50;99.90;;;;;;5053003;28;20044;-55
2023/10/27 06:26:22;;;;;;;74.20;23.85;;;9.50;99.90;;;;;;5053033;28;20037;-54
2023/10/27 06:28:48;;;;;;;79.70;24.70;;;9.50;99.90;;;;;;5052801;28;20472;-53
2023/10/27 06:31:14;;;;;;;91.55;42.28;;;9.80;99.90;;;;;;5034749;28;20037;-51
2023/10/27 06:33:39;;;;;;;77.30;23.35;;;9.60;99.90;;;;;;5052253;28;20040;-56
2023/10/27 06:36:05;;;;;;;88.55;40.58;;;9.50;99.90;;;;;;5053227;28;20118;-56
2023/10/27 06:38:31;;;;;;;89.90;42.75;;;9.70;99.90;;;;;;5053132;28;20044;-53
2023/10/27 06:40:57;;;;;;;75.85;22.58;;;9.70;99.90;;;;;;5053164;28;20032;-54
2023/10/27 06:43:22;;;;;;;82.10;23.77;;;9.80;99.90;;;;;;5052782;28;20041;-56
2023/10/27 06:45:48;;;;;;;79.88;24.13;;;10.00;99.90;;;;;;5052211;28;20041;-54
2023/10/27 06:48:14;;;;;;;81.18;23.70;;;9.50;99.90;;;;;;5052202;28;20033;-52
2023/10/27 06:50:40;;;;;;;79.00;24.08;;;9.60;99.90;;;;;;5053148;28;20049;-53
2023/10/27 06:53:06;;;;;;;83.28;24.20;;;9.70;99.90;;;;;;5027187;28;20538;-51
2023/10/27 06:55:32;;;;;;;72.45;23.15;;;9.90;99.90;;;;;;5043154;28;20025;-52
2023/10/27 06:57:59;;;;;;;80.60;25.50;;;9.60;99.90;;;;;;5033000;28;20041;-57
2023/10/27 07:00:24;;;;;;;76.45;24.50;;;9.50;99.90;;;;;;5043594;28;20033;-53
2023/10/27 07:02:50;;;;;;;71.70;22.55;;;9.90;99.90;;;;;;5044546;28;20033;-57
2023/10/27 07:05:17;;;;;;;71.95;24.50;;;9.50;99.90;;;;;;5045683;28;20052;-52
2023/10/27 07:07:43;;;;;;;69.47;22.42;;;9.50;99.90;;;;;;5041536;28;20616;-51
2023/10/27 07:10:10;;;;;;;73.47;23.55;;;9.80;99.90;;;;;;5043993;28;20039;-56
2023/10/27 07:12:36;;;;;;;72.68;23.92;;;9.50;99.90;;;;;;5043080;28;20078;-53
2023/10/27 07:15:03;;;;;;;79.60;40.17;;;9.50;99.90;;;;;;5043034;28;20558;-52
2023/10/27 07:17:28;;;;;;;77.72;40.30;;;9.50;99.90;;;;;;5042201;28;20041;-53
2023/10/27 07:19:54;;;;;;;62.20;20.88;;;9.80;99.90;;;;;;5037249;28;20090;-52
2023/10/27 07:22:20;;;;;;;59.58;22.70;;;10.00;99.90;;;;;;5043577;28;20133;-53
2023/10/27 07:24:47;;;;;;;65.60;21.45;;;9.80;99.90;;;;;;5040907;28;20041;-54
2023/10/27 07:27:13;;;;;;;62.50;23.13;;;9.80;99.90;;;;;;5042420;28;20052;-56
2023/10/27 07:29:39;;;;;;;62.40;22.63;;;9.80;99.90;;;;;;5042283;28;20037;-52
2023/10/27 07:32:05;;;;;;;64.93;21.55;;;9.60;99.90;;;;;;5042089;28;20086;-52
2023/10/27 07:34:31;;;;;;;65.22;23.17;;;9.80;99.90;;;;;;5042732;28;20033;-52
2023/10/27 07:36:56;;;;;;;60.42;21.02;;;10.00;99.90;;;;;;5043240;28;20423;-53
2023/10/27 07:39:25;;;;;;;62.28;22.35;;;9.70;99.90;;;;;;5043550;28;20029;-57
2023/10/27 07:41:51;;;;;;;72.80;38.03;;;10.00;99.90;;;;;;5042450;28;20025;-52
2023/10/27 07:44:17;;;;;;;73.90;24.73;;;9.60;99.90;;;;;;5041001;28;20044;-53
2023/10/27 07:46:42;;;;;;;63.42;21.55;;;9.70;99.90;;;;;;5043373;28;20480;-54
2023/10/27 07:49:08;;;;;;;60.67;21.10;;;10.00;99.90;;;;;;5042862;28;20472;-55
2023/10/27 07:51:34;;;;;;;62.17;22.40;;;9.80;99.90;;;;;;5025807;28;20452;-53
2023/10/27 07:54:00;;;;;;;66.68;21.80;;;9.60;99.90;;;;;;5042553;28;20040;-57
2023/10/27 07:56:25;;;;;;;61.38;22.45;;;9.70;99.90;;;;;;5036162;28;20044;-53
2023/10/27 07:58:51;;;;;;;65.57;23.10;;;9.70;99.90;;;;;;5043912;28;20100;-55
2023/10/27 08:01:17;;;;;;;64.43;22.30;;;9.80;99.90;;;;;;5043469;28;20389;-53
2023/10/27 08:03:45;;;;;;;60.72;22.15;;;10.00;99.90;;;;;;5042971;28;20029;-52
2023/10/27 08:06:11;;;;;;;67.88;22.58;;;9.60;99.90;;;;;;5023453;28;20057;-53
2023/10/27 08:08:37;;;;;;;73.95;38.38;;;9.70;99.90;;;;;;5024045;28;20261;-54
2023/10/27 08:11:07;;;;;;;69.20;22.60;;;9.70;99.90;;;;;;5042276;28;20045;-56
2023/10/27 08:13:33;;;;;;;66.00;22.52;;;9.90;99.90;;;;;;5042091;28;20137;-53
2023/10/27 08:16:00;;;;;;;58.58;21.42;;;10.00;99.90;;;;;;5025981;28;20052;-53
2023/10/27 08:18:25;;;;;;;67.45;23.98;;;9.70;99.90;;;;;;5041714;28;20116;-52
2023/10/27 08:20:53;;;;;;;58.53;22.15;;;9.70;99.90;;;;;;5040234;28;20784;-56
2023/10/27 08:23:20;;;;;;;65.57;37.30;;;9.90;99.90;;;;;;5041835;28;20072;-55
2023/10/27 08:25:52;;;;;;;65.47;22.38;;;10.20;99.90;;;;;;5042052;28;20052;-51
2023/10/27 08:28:18;;;;;;;64.22;21.33;;;9.80;99.90;;;;;;5042967;28;20112;-53
2023/10/27 08:30:45;;;;;;;65.97;22.02;;;10.20;99.90;;;;;;5042626;28;20051;-58
2023/10/27 08:33:10;;;;;;;60.40;21.13;;;10.10;99.90;;;;;;5024185;28;20065;-58
2023/10/27 08:35:36;;;;;;;63.97;37.40;;;9.80;99.90;;;;;;5018311;28;20057;-53
2023/10/27 08:38:02;;;;;;;57.08;20.35;;;10.20;99.90;;;;;;5042389;28;20128;-55
2023/10/27 08:40:28;;;;;;;56.50;21.15;;;10.30;99.90;;;;;;5013161;28;20041;-50
2023/10/27 08:42:55;;;;;;;52.13;20.02;;;10.20;99.90;;;;;;5041854;28;20060;-53
2023/10/27 08:45:23;;;;;;;54.90;21.98;;;9.90;99.90;;;;;;5041093;28;20028;-54
2023/10/27 08:47:49;;;;;;;54.38;20.23;;;10.10;99.90;;;;;;5041815;28;20045;-51
2023/10/27 08:50:16;;;;;;;52.38;21.20;;;10.30;99.90;;;;;;5041383;28;20088;-52
2023/10/27 08:52:42;;;;;;;54.30;20.90;;;10.30;99.90;;;;;;5026067;28;20127;-57
2023/10/27 08:55:10;;;;;;;64.47;36.05;;;9.90;99.90;;;;;;5040004;28;20441;-58
2023/10/27 08:57:37;;;;;;;61.25;35.30;;;10.00;99.90;;;;;;5038041;28;20040;-52
2023/10/27 09:00:05;;;;;;;58.47;22.38;;;10.40;99.90;;;;;;5041876;28;20052;-52
2023/10/27 09:02:33;;;;;;;58.28;21.52;;;10.30;99.90;;;;;;5025844;28;20087;-52
2023/10/27 09:05:09;;;;;;;58.10;22.98;;;10.20;99.90;;;;;;5041130;28;20094;-53
2023/10/27 09:07:36;;;;;;;66.78;37.65;;;10.30;99.90;;;;;;5041979;28;20384;-58
2023/10/27 09:10:03;;;;;;;57.72;21.63;;;10.10;99.90;;;;;;5040656;28;20091;-54
2023/10/27 09:12:30;;;;;;;62.85;35.58;;;10.00;99.90;;;;;;5041098;28;20115;-53
2023/10/27 09:15:07;;;;;;;56.20;20.83;;;10.40;99.90;;;;;;5039325;28;20055;-53
2023/10/27 09:17:56;;;;;;;63.55;36.28;;;10.00;99.90;;;;;;5041014;28;20072;-55
2023/10/27 09:20:25;;;;;;;51.95;20.10;;;10.10;99.90;;;;;;5041924;28;20131;-58
2023/10/27 09:23:04;;;;;;;52.72;20.40;;;10.20;99.90;;;;;;5042573;28;20116;-52
2023/10/27 09:25:34;;;;;;;51.60;19.08;;;10.10;99.90;;;;;;5040788;28;20381;-54
2023/10/27 09:28:07;;;;;;;50.75;19.27;;;10.00;99.90;;;;;;5042015;28;20455;-53
2023/10/27 09:30:39;;;;;;;51.75;19.55;;;10.30;99.90;;;;;;5041134;28;20265;-55
2023/10/27 09:33:26;;;;;;;46.40;17.98;;;10.00;99.90;;;;;;5041212;28;20029;-54
2023/10/27 09:35:53;;;;;;;57.72;32.00;;;10.40;99.90;;;;;;5038399;28;20099;-55
2023/10/27 09:38:20;;;;;;;48.80;19.10;;;10.10;99.90;;;;;;5040715;28;20083;-57
2023/10/27 09:40:46;;;;;;;49.25;19.20;;;10.00;99.90;;;;;;5042099;28;20063;-56
2023/10/27 09:43:17;;;;;;;48.15;17.95;;;10.30;99.90;;;;;;5041872;28;20732;-56
2023/10/27 09:45:53;;;;;;;48.88;18.92;;;10.20;99.90;;;;;;5024019;28;20037;-47
2023/10/27 09:48:24;;;;;;;44.97;17.25;;;10.30;99.90;;;;;;5041842;28;20045;-51
2023/10/27 09:51:02;;;;;;;51.75;18.85;;;10.20;99.90;;;;;;5046235;28;20053;-55
2023/10/27 09:53:28;;;;;;;53.30;29.95;;;10.10;99.90;;;;;;5046123;28;20037;-54
2023/10/27 09:55:57;;;;;;;44.85;17.23;;;10.60;99.90;;;;;;5045878;28;20047;-54
2023/10/27 09:58:25;;;;;;;49.60;28.20;;;10.40;99.90;;;;;;5045731;28;20040;-54
2023/10/27 10:00:51;;;;;;;46.53;17.00;;;10.20;99.90;;;;;;5045439;28;20064;-54
2023/10/27 10:03:17;;;;;;;45.97;16.85;;;10.60;99.90;;;;;;5045428;28;20451;-54
2023/10/27 10:06:10;;;;;;;44.33;17.17;;;10.50;99.90;;;;;;5043700;28;20519;-55
2023/10/27 10:08:36;;;;;;;46.53;17.27;;;10.20;99.90;;;;;;5025003;28;20057;-53
2023/10/27 10:11:13;;;;;;;49.95;18.13;;;10.60;99.90;;;;;;5043516;28;20106;-53
2023/10/27 10:13:39;;;;;;;50.47;17.92;;;10.50;99.90;;;;;;5042412;28;20049;-53
2023/10/27 10:16:06;;;;;;;50.78;19.17;;;10.60;99.90;;;;;;5045023;28;20037;-55
2023/10/27 10:18:35;;;;;;;55.70;32.22;;;10.60;99.90;;;;;;5043409;28;20480;-53
2023/10/27 10:21:01;;;;;;;46.88;18.85;;;10.40;99.90;;;;;;5045441;28;20481;-54
2023/10/27 10:23:50;;;;;;;46.30;17.73;;;10.40;99.90;;;;;;5044620;28;20396;-55
2023/10/27 10:26:16;;;;;;;46.00;17.60;;;10.40;99.90;;;;;;5031341;28;20053;-54
2023/10/27 10:28:45;;;;;;;49.60;18.58;;;10.40;99.90;;;;;;5043991;28;20508;-52
2023/10/27 10:31:11;;;;;;;52.67;20.13;;;10.40;99.90;;;;;;5044289;28;20061;-53
2023/10/27 10:33:37;;;;;;;56.20;20.70;;;10.60;99.90;;;;;;5044591;28;20079;-53
2023/10/27 10:36:15;;;;;;;57.13;32.72;;;10.40;99.90;;;;;;5044479;28;20076;-54
2023/10/27 10:38:43;;;;;;;54.35;19.40;;;10.70;99.90;;;;;;5043457;28;20087;-53
2023/10/27 10:41:09;;;;;;;57.70;19.73;;;10.70;99.90;;;;;;5045781;28;20119;-55
2023/10/27 10:43:36;;;;;;;50.75;19.00;;;10.70;99.90;;;;;;5041229;28;20171;-53
2023/10/27 10:46:07;;;;;;;56.72;32.63;;;10.70;99.90;;;;;;5038073;28;20044;-57
2023/10/27 10:48:35;;;;;;;50.72;18.65;;;10.30;99.90;;;;;;5039485;28;20044;-56
2023/10/27 10:51:11;;;;;;;44.30;18.20;;;10.30;99.90;;;;;;5041151;28;20867;-53
2023/10/27 10:53:37;;;;;;;47.92;18.73;;;10.30;99.90;;;;;;5023332;28;20111;-56
2023/10/27 10:56:04;;;;;;;53.83;31.10;;;10.20;99.90;;;;;;5038715;28;20043;-54
2023/10/27 10:58:35;;;;;;;45.20;17.38;;;10.60;99.90;;;;;;5042213;28;20040;-53
2023/10/27 11:01:03;;;;;;;43.10;16.42;;;10.60;99.90;;;;;;5041037;28;20037;-54
2023/10/27 11:03:34;;;;;;;40.30;16.55;;;10.50;99.90;;;;;;5035061;28;20033;-54
2023/10/27 11:06:02;;;;;;;42.83;16.00;;;10.70;99.90;;;;;;5040572;28;20469;-53
2023/10/27 11:08:34;;;;;;;44.17;26.40;;;10.70;99.90;;;;;;5041532;28;20508;-54
2023/10/27 11:11:14;;;;;;;54.70;19.17;;;10.70;99.90;;;;;;5041762;28;20029;-56
2023/10/27 11:13:41;;;;;;;48.75;17.58;;;10.80;99.90;;;;;;5040603;28;20499;-53
2023/10/27 11:16:19;;;;;;;43.60;16.63;;;10.30;99.90;;;;;;5041607;28;20052;-55
2023/10/27 11:18:46;;;;;;;43.33;16.80;;;10.40;99.90;;;;;;5040129;28;20426;-53
2023/10/27 11:21:18;;;;;;;44.75;16.77;;;10.30;99.90;;;;;;5042704;28;20062;-54
2023/10/27 11:23:46;;;;;;;47.05;27.85;;;10.70;99.90;;;;;;5036147;28;20069;-50
2023/10/27 11:26:11;;;;;;;42.35;15.70;;;10.80;99.90;;;;;;5036459;28;20061;-56
2023/10/27 11:28:39;;;;;;;35.70;14.27;;;10.90;99.90;;;;;;5040450;28;20033;-52
2023/10/27 11:31:15;;;;;;;39.08;24.25;;;10.80;99.90;;;;;;5041665;28;20032;-51
2023/10/27 11:33:59;;;;;;;42.38;24.75;;;10.70;99.90;;;;;;5039840;28;20048;-51
2023/10/27 11:36:26;;;;;;;34.20;22.77;;;10.70;99.90;;;;;;5040159;28;20075;-55
2023/10/27 11:38:51;;;;;;;29.08;12.98;;;10.90;99.90;;;;;;5039807;28;20554;-55
2023/10/27 11:41:19;;;;;;;31.00;13.90;;;10.80;99.90;;;;;;5037876;28;20040;-52
2023/10/27 11:43:45;;;;;;;33.97;22.73;;;10.80;99.90;;;;;;5039221;28;20098;-56
2023/10/27 11:46:14;;;;;;;31.40;13.70;;;10.60;99.90;;;;;;5039363;28;20037;-53
2023/10/27 11:48:43;;;;;;;32.65;14.13;;;10.90;99.90;;;;;;5039137;28;20033;-54
2023/10/27 11:51:10;;;;;;;32.50;14.25;;;10.50;99.90;;;;;;5042314;28;20511;-55
2023/10/27 11:53:43;;;;;;;33.38;14.10;;;10.50;99.90;;;;;;5040804;28;20094;-54
2023/10/27 11:56:13;;;;;;;32.70;13.43;;;10.50;99.90;;;;;;5041762;28;20044;-54
2023/10/27 11:58:39;;;;;;;32.78;14.23;;;10.80;99.90;;;;;;5042284;28;20027;-54
2023/10/27 12:01:05;;;;;;;36.60;14.45;;;10.50;99.90;;;;;;5041468;28;20032;-53
2023/10/27 12:03:30;;;;;;;35.17;15.40;;;10.80;99.90;;;;;;5042034;28;20056;-54
2023/10/27 12:05:56;;;;;;;35.25;22.00;;;10.50;99.90;;;;;;5042265;28;20060;-55
2023/10/27 12:08:22;;;;;;;36.50;14.15;;;10.50;99.90;;;;;;5041773;28;20087;-52
2023/10/27 12:10:53;;;;;;;31.70;13.90;;;10.70;99.90;;;;;;5041532;28;20044;-56
2023/10/27 12:13:24;;;;;;;32.47;13.30;;;10.70;99.90;;;;;;5042173;28;20044;-57
2023/10/27 12:15:50;;;;;;;33.13;13.82;;;10.70;99.90;;;;;;5042096;28;20045;-58
2023/10/27 12:18:16;;;;;;;32.90;13.82;;;10.90;99.90;;;;;;5032540;28;20030;-54
2023/10/27 12:20:43;;;;;;;34.95;15.00;;;10.60;99.90;;;;;;5040559;28;20045;-54
2023/10/27 12:23:09;;;;;;;27.38;12.75;;;10.50;99.90;;;;;;5038106;28;20068;-56
2023/10/27 12:25:35;;;;;;;35.13;14.13;;;10.90;99.90;;;;;;5013697;28;20025;-53
2023/10/27 12:28:02;;;;;;;35.35;22.65;;;10.60;99.90;;;;;;5042520;28;20623;-55
2023/10/27 12:30:28;;;;;;;31.42;12.55;;;10.60;99.90;;;;;;5037858;28;20048;-58
2023/10/27 12:32:53;;;;;;;28.67;12.10;;;10.90;99.90;;;;;;5021440;28;20083;-54